sensor_id;sensor_type;location;lat;lon;timestamp;pressure;altitude;pressure_sealevel;temperature;humidity
57374;BME280;43964;53.890;25.340;2023-02-21T00:47:06;997.9;;;5.8;64.8
57374;BME280;43964;53.890;25.340;2023-02-21T00:51:44;997.8;;;5.8;64.8
57374;BME280;43964;53.890;25.340;2023-02-21T01:46:38;997.9;;;5.6;65.5
57374;BME280;43964;53.890;25.340;2023-02-21T01:51:56;997.9;;;5.6;65.5
57374;BME280;43964;53.890;25.340;2023-02-21T02:02:05;997.9;;;5.4;66.2
57374;BME280;43964;53.890;25.340;2023-02-21T02:06:18;997.9;;;5.3;66.5
57374;BME280;43964;53.890;25.340;2023-02-21T02:11:34;997.9;;;5.3;66.5
57374;BME280;43964;53.890;25.340;2023-02-21T02:27:16;997.6;;;5.1;67.1
57374;BME280;43964;53.890;25.340;2023-02-21T03:07:06;997.6;;;4.9;67.8
57374;BME280;43964;53.890;25.340;2023-02-21T03:11:28;997.6;;;4.9;67.8
57374;BME280;43964;53.890;25.340;2023-02-21T03:21:45;997.7;;;4.9;67.9
57374;BME280;43964;53.890;25.340;2023-02-21T03:27:05;997.7;;;4.9;67.9
57374;BME280;43964;53.890;25.340;2023-02-21T03:36:18;997.7;;;4.9;67.9
57374;BME280;43964;53.890;25.340;2023-02-21T03:41:52;997.6;;;4.9;68
57374;BME280;43964;53.890;25.340;2023-02-21T03:46:44;997.6;;;4.9;68
57374;BME280;43964;53.890;25.340;2023-02-21T03:52:06;997.6;;;4.9;68.3
57374;BME280;43964;53.890;25.340;2023-02-21T03:56:56;997.5;;;4.9;68.3
57374;BME280;43964;53.890;25.340;2023-02-21T04:01:18;997.4;;;4.9;68.4
57374;BME280;43964;53.890;25.340;2023-02-21T04:07:06;997.4;;;4.9;68.4
57374;BME280;43964;53.890;25.340;2023-02-21T04:36:44;997.2;;;4.8;68.8
57374;BME280;43964;53.890;25.340;2023-02-21T04:42:04;997.2;;;4.8;68.8
57374;BME280;43964;53.890;25.340;2023-02-21T04:46:44;997.2;;;4.8;68.8
57374;BME280;43964;53.890;25.340;2023-02-21T04:51:26;997.2;;;4.8;68.8
57374;BME280;43964;53.890;25.340;2023-02-21T06:06:30;997.5;;;4.9;68.8
57374;BME280;43964;53.890;25.340;2023-02-21T06:12:06;997.5;;;4.9;68.8
57374;BME280;43964;53.890;25.340;2023-02-21T06:16:44;997.6;;;5;68.8
57374;BME280;43964;53.890;25.340;2023-02-21T06:22:04;997.6;;;5;68.8
57374;BME280;43964;53.890;25.340;2023-02-21T06:46:48;997.8;;;5.6;68.2
57374;BME280;43964;53.890;25.340;2023-02-21T06:52:04;997.7;;;5.6;68.2
57374;BME280;43964;53.890;25.340;2023-02-21T07:06:18;997.8;;;5.6;68
57374;BME280;43964;53.890;25.340;2023-02-21T07:11:48;997.8;;;5.6;68
57374;BME280;43964;53.890;25.340;2023-02-21T07:17:04;997.9;;;5.6;67.9
57374;BME280;43964;53.890;25.340;2023-02-21T07:21:36;997.9;;;5.6;67.9
57374;BME280;43964;53.890;25.340;2023-02-21T07:31:28;997.9;;;6.3;67
57374;BME280;43964;53.890;25.340;2023-02-21T07:37:04;997.9;;;6.3;66.9
57374;BME280;43964;53.890;25.340;2023-02-21T07:56:44;998.3;;;6.4;66.2
57374;BME280;43964;53.890;25.340;2023-02-21T08:01:48;998.4;;;6.3;66.1
57374;BME280;43964;53.890;25.340;2023-02-21T08:07:07;998.4;;;6.3;66.1
57374;BME280;43964;53.890;25.340;2023-02-21T08:11:36;998.5;;;6.3;66
57374;BME280;43964;53.890;25.340;2023-02-21T08:17:04;998.6;;;6.3;65.8
57374;BME280;43964;53.890;25.340;2023-02-21T08:21:44;998.7;;;6.2;65.7
57374;BME280;43964;53.890;25.340;2023-02-21T08:27:06;998.7;;;6.2;65.5
57374;BME280;43964;53.890;25.340;2023-02-21T08:32:02;998.9;;;6.3;65.2
57374;BME280;43964;53.890;25.340;2023-02-21T08:36:18;998.9;;;6.3;65
57374;BME280;43964;53.890;25.340;2023-02-21T08:42:06;999;;;6.3;64.8
57374;BME280;43964;53.890;25.340;2023-02-21T08:46:44;999.1;;;6.5;64.3
57374;BME280;43964;53.890;25.340;2023-02-21T08:51:50;999.2;;;6.7;63.8
57374;BME280;43964;53.890;25.340;2023-02-21T08:57:06;999.2;;;6.7;63.5
57374;BME280;43964;53.890;25.340;2023-02-21T09:01:18;999.3;;;6.8;63.2
57374;BME280;43964;53.890;25.340;2023-02-21T09:07:06;999.4;;;6.9;63
57374;BME280;43964;53.890;25.340;2023-02-21T09:11:44;999.4;;;7.1;62.8
57374;BME280;43964;53.890;25.340;2023-02-21T09:16:48;999.5;;;7.2;62.5
57374;BME280;43964;53.890;25.340;2023-02-21T09:22:05;999.7;;;7.3;61.8
57374;BME280;43964;53.890;25.340;2023-02-21T09:26:32;999.8;;;7.3;61.4
57374;BME280;43964;53.890;25.340;2023-02-21T09:32:06;1000.1;;;7.2;61.5
57374;BME280;43964;53.890;25.340;2023-02-21T09:36:44;1000.4;;;7;61.3
57374;BME280;43964;53.890;25.340;2023-02-21T09:41:26;1000.7;;;6.4;61.4
57374;BME280;43964;53.890;25.340;2023-02-21T09:47:06;1000.9;;;5.6;61.8
57374;BME280;43964;53.890;25.340;2023-02-21T09:51:28;1000.9;;;5.2;62.1
57374;BME280;43964;53.890;25.340;2023-02-21T09:57:09;1000.9;;;5.1;62.1
57374;BME280;43964;53.890;25.340;2023-02-21T10:01:30;1001;;;5.3;62
57374;BME280;43964;53.890;25.340;2023-02-21T10:06:39;1001;;;5.5;61.8
57374;BME280;43964;53.890;25.340;2023-02-21T10:12:07;1001.1;;;5.5;61.7
57374;BME280;43964;53.890;25.340;2023-02-21T10:16:19;1001.3;;;5.4;61.8
57374;BME280;43964;53.890;25.340;2023-02-21T10:22:10;1001.4;;;5.5;61.6
57374;BME280;43964;53.890;25.340;2023-02-21T10:26:46;1001.4;;;5.8;61.2
57374;BME280;43964;53.890;25.340;2023-02-21T10:31:35;1001.5;;;6.1;61.1
57374;BME280;43964;53.890;25.340;2023-02-21T10:37:11;1001.5;;;6.2;60.7
57374;BME280;43964;53.890;25.340;2023-02-21T10:41:26;1001.5;;;6.4;60.5
57374;BME280;43964;53.890;25.340;2023-02-21T10:47:06;1001.8;;;6.4;59.9
57374;BME280;43964;53.890;25.340;2023-02-21T10:51:44;1001.9;;;6.6;58.8
57374;BME280;43964;53.890;25.340;2023-02-21T10:57:07;1002.1;;;6.5;58.5
57374;BME280;43964;53.890;25.340;2023-02-21T11:01:50;1002.4;;;6.3;58.7
57374;BME280;43964;53.890;25.340;2023-02-21T11:06:20;1002.5;;;6.1;58.6
57374;BME280;43964;53.890;25.340;2023-02-21T11:11:42;1002.7;;;6.1;58.8
57374;BME280;43964;53.890;25.340;2023-02-21T11:17:24;1002.9;;;6.2;58.8
57374;BME280;43964;53.890;25.340;2023-02-21T11:22:04;1002.9;;;6.1;58.6
57374;BME280;43964;53.890;25.340;2023-02-21T11:26:51;1003.1;;;5.8;57.9
57374;BME280;43964;53.890;25.340;2023-02-21T11:31:20;1003.3;;;5.7;58.3
57374;BME280;43964;53.890;25.340;2023-02-21T11:36:43;1003.5;;;5.6;57.8
57374;BME280;43964;53.890;25.340;2023-02-21T11:41:44;1003.6;;;5.8;57.8
57374;BME280;43964;53.890;25.340;2023-02-21T11:47:11;1003.6;;;6.3;57.9
57374;BME280;43964;53.890;25.340;2023-02-21T11:51:55;1003.9;;;6.1;56.3
57374;BME280;43964;53.890;25.340;2023-02-21T11:56:20;1004.2;;;5.8;56.6
57374;BME280;43964;53.890;25.340;2023-02-21T12:01:42;1004.3;;;5.6;56.5
57374;BME280;43964;53.890;25.340;2023-02-21T12:06:56;1004.4;;;5.5;56.5
57374;BME280;43964;53.890;25.340;2023-02-21T12:12:10;1004.6;;;5.5;56.3
57374;BME280;43964;53.890;25.340;2023-02-21T12:16:54;1004.6;;;5.5;56.3
57374;BME280;43964;53.890;25.340;2023-02-21T12:21:45;1004.9;;;5.4;56.4
57374;BME280;43964;53.890;25.340;2023-02-21T12:26:45;1005;;;5.4;56.6
57374;BME280;43964;53.890;25.340;2023-02-21T12:31:57;1005.1;;;5.4;56.4
57374;BME280;43964;53.890;25.340;2023-02-21T12:36:58;1005.3;;;5.3;55.9
57374;BME280;43964;53.890;25.340;2023-02-21T12:42:01;1005.4;;;5.3;55.7
57374;BME280;43964;53.890;25.340;2023-02-21T12:46:44;1005.6;;;5.3;55.5
57374;BME280;43964;53.890;25.340;2023-02-21T12:51:31;1005.8;;;5.2;55.5
57374;BME280;43964;53.890;25.340;2023-02-21T12:56:56;1005.8;;;5;55.7
57374;BME280;43964;53.890;25.340;2023-02-21T13:02:08;1006;;;4.8;55.7
57374;BME280;43964;53.890;25.340;2023-02-21T13:06:41;1006.1;;;4.7;55.7
57374;BME280;43964;53.890;25.340;2023-02-21T13:11:20;1006.2;;;4.6;55.8
57374;BME280;43964;53.890;25.340;2023-02-21T13:16:40;1006.2;;;4.6;55.7
57374;BME280;43964;53.890;25.340;2023-02-21T13:21:57;1006.4;;;4.7;55.8
57374;BME280;43964;53.890;25.340;2023-02-21T13:28:10;1006.5;;;4.8;55.7
57374;BME280;43964;53.890;25.340;2023-02-21T13:32:07;1006.7;;;4.9;55.8
57374;BME280;43964;53.890;25.340;2023-02-21T13:36:31;1006.8;;;4.9;55.9
57374;BME280;43964;53.890;25.340;2023-02-21T13:41:28;1007;;;4.7;55.9
57374;BME280;43964;53.890;25.340;2023-02-21T13:47:02;1007.1;;;4.4;56.2
57374;BME280;43964;53.890;25.340;2023-02-21T13:53:13;1007.4;;;4.2;56.3
57374;BME280;43964;53.890;25.340;2023-02-21T13:56:54;1007.6;;;4;56.7
57374;BME280;43964;53.890;25.340;2023-02-21T14:01:39;1007.7;;;3.9;57.1
57374;BME280;43964;53.890;25.340;2023-02-21T14:06:31;1007.9;;;4;57.3
57374;BME280;43964;53.890;25.340;2023-02-21T14:11:49;1008;;;4;57.5
57374;BME280;43964;53.890;25.340;2023-02-21T14:17:09;1008.1;;;4.1;57.4
57374;BME280;43964;53.890;25.340;2023-02-21T14:21:57;1008.2;;;4.2;57.3
57374;BME280;43964;53.890;25.340;2023-02-21T14:26:50;1008.2;;;4.1;57.3
57374;BME280;43964;53.890;25.340;2023-02-21T14:31:54;1008.3;;;4;57.6
57374;BME280;43964;53.890;25.340;2023-02-21T14:36:32;1008.4;;;4.1;57.6
57374;BME280;43964;53.890;25.340;2023-02-21T14:42:18;1008.5;;;4.1;57.6
57374;BME280;43964;53.890;25.340;2023-02-21T14:47:15;1008.6;;;3.9;57.6
57374;BME280;43964;53.890;25.340;2023-02-21T14:52:00;1008.7;;;3.7;57.9
57374;BME280;43964;53.890;25.340;2023-02-21T14:56:39;1008.9;;;3.7;57.8
57374;BME280;43964;53.890;25.340;2023-02-21T15:01:54;1009.1;;;3.5;58.1
57374;BME280;43964;53.890;25.340;2023-02-21T15:07:07;1009.2;;;3.5;58.2
57374;BME280;43964;53.890;25.340;2023-02-21T15:11:48;1009.3;;;3.5;58.4
57374;BME280;43964;53.890;25.340;2023-02-21T15:16:29;1009.3;;;3.4;58.3
57374;BME280;43964;53.890;25.340;2023-02-21T15:21:40;1009.6;;;3.3;58.5
57374;BME280;43964;53.890;25.340;2023-02-21T15:26:19;1009.7;;;3.2;58.3
57374;BME280;43964;53.890;25.340;2023-02-21T15:32:04;1009.8;;;3.1;58.6
57374;BME280;43964;53.890;25.340;2023-02-21T15:36:54;1010;;;3.1;58.6
57374;BME280;43964;53.890;25.340;2023-02-21T15:41:31;1010.2;;;2.9;58.5
57374;BME280;43964;53.890;25.340;2023-02-21T15:46:33;1010.4;;;2.8;58.6
57374;BME280;43964;53.890;25.340;2023-02-21T15:51:54;1010.4;;;2.8;58.8
57374;BME280;43964;53.890;25.340;2023-02-21T15:57:17;1010.6;;;2.7;58.5
57374;BME280;43964;53.890;25.340;2023-02-21T16:02:05;1010.8;;;2.5;58.5
57374;BME280;43964;53.890;25.340;2023-02-21T16:06:20;1010.9;;;2.5;58.6
57374;BME280;43964;53.890;25.340;2023-02-21T16:11:46;1011;;;2.5;58.6
57374;BME280;43964;53.890;25.340;2023-02-21T16:16:18;1011.2;;;2.6;58.5
57374;BME280;43964;53.890;25.340;2023-02-21T16:22:21;1011.3;;;2.5;58.3
57374;BME280;43964;53.890;25.340;2023-02-21T16:27:08;1011.3;;;2.4;58.3
57374;BME280;43964;53.890;25.340;2023-02-21T16:31:29;1011.5;;;2.2;58.2
57374;BME280;43964;53.890;25.340;2023-02-21T16:36:42;1011.6;;;2;58.8
57374;BME280;43964;53.890;25.340;2023-02-21T16:41:18;1011.7;;;2;59
57374;BME280;43964;53.890;25.340;2023-02-21T16:47:06;1011.9;;;2.1;58.8
57374;BME280;43964;53.890;25.340;2023-02-21T16:51:52;1011.9;;;2.1;59.3
57374;BME280;43964;53.890;25.340;2023-02-21T16:56:28;1012.1;;;2.1;59.2
57374;BME280;43964;53.890;25.340;2023-02-21T17:01:29;1012.2;;;2.2;59.5
57374;BME280;43964;53.890;25.340;2023-02-21T17:06:28;1012.3;;;2.4;59.7
57374;BME280;43964;53.890;25.340;2023-02-21T17:12:06;1012.3;;;2.5;59.9
57374;BME280;43964;53.890;25.340;2023-02-21T17:16:52;1012.3;;;2.6;59.6
57374;BME280;43964;53.890;25.340;2023-02-21T17:21:18;1012.4;;;2.7;59.5
57374;BME280;43964;53.890;25.340;2023-02-21T17:26:40;1012.5;;;2.8;59.3
57374;BME280;43964;53.890;25.340;2023-02-21T17:31:18;1012.5;;;2.9;59.2
57374;BME280;43964;53.890;25.340;2023-02-21T17:36:52;1012.6;;;2.9;59.1
57374;BME280;43964;53.890;25.340;2023-02-21T17:41:52;1012.6;;;2.8;58.9
57374;BME280;43964;53.890;25.340;2023-02-21T17:46:30;1012.7;;;2.6;58.9
57374;BME280;43964;53.890;25.340;2023-02-21T17:51:19;1012.8;;;2.5;58.9
57374;BME280;43964;53.890;25.340;2023-02-21T17:56:19;1012.9;;;2.3;58.9
57374;BME280;43964;53.890;25.340;2023-02-21T18:02:02;1013;;;2.1;59.2
57374;BME280;43964;53.890;25.340;2023-02-21T18:06:48;1013.1;;;2.1;59.4
57374;BME280;43964;53.890;25.340;2023-02-21T18:11:30;1013.1;;;2;59.4
57374;BME280;43964;53.890;25.340;2023-02-21T18:16:42;1013.3;;;1.9;59.3
57374;BME280;43964;53.890;25.340;2023-02-21T18:21:18;1013.3;;;1.8;59.5
57374;BME280;43964;53.890;25.340;2023-02-21T18:27:04;1013.4;;;1.8;59.5
57374;BME280;43964;53.890;25.340;2023-02-21T18:31:32;1013.5;;;1.8;59.9
57374;BME280;43964;53.890;25.340;2023-02-21T18:37:06;1013.6;;;2;59.8
57374;BME280;43964;53.890;25.340;2023-02-21T18:41:19;1013.6;;;2;59.8
57374;BME280;43964;53.890;25.340;2023-02-21T18:46:49;1013.7;;;2.1;59.5
57374;BME280;43964;53.890;25.340;2023-02-21T18:52:06;1013.7;;;2;59.7
57374;BME280;43964;53.890;25.340;2023-02-21T18:56:52;1013.8;;;2;59.4
57374;BME280;43964;53.890;25.340;2023-02-21T19:01:30;1014;;;1.9;59.4
57374;BME280;43964;53.890;25.340;2023-02-21T19:06:40;1014;;;1.9;59.6
57374;BME280;43964;53.890;25.340;2023-02-21T19:11:56;1014.1;;;2;59.3
57374;BME280;43964;53.890;25.340;2023-02-21T19:17:08;1014.2;;;2.1;59.5
57374;BME280;43964;53.890;25.340;2023-02-21T19:21:46;1014.3;;;2.1;59.6
57374;BME280;43964;53.890;25.340;2023-02-21T19:26:54;1014.3;;;2.1;59.5
57374;BME280;43964;53.890;25.340;2023-02-21T19:31:28;1014.4;;;2.1;59.2
57374;BME280;43964;53.890;25.340;2023-02-21T19:36:18;1014.5;;;2;59.1
57374;BME280;43964;53.890;25.340;2023-02-21T19:41:52;1014.5;;;1.9;59.4
57374;BME280;43964;53.890;25.340;2023-02-21T19:46:54;1014.7;;;2;59.3
57374;BME280;43964;53.890;25.340;2023-02-21T19:51:50;1014.7;;;2;59.3
57374;BME280;43964;53.890;25.340;2023-02-21T19:56:40;1014.9;;;1.9;59.4
57374;BME280;43964;53.890;25.340;2023-02-21T20:01:28;1015;;;1.9;59.6
57374;BME280;43964;53.890;25.340;2023-02-21T20:06:52;1015.1;;;2;59.5
57374;BME280;43964;53.890;25.340;2023-02-21T20:12:05;1015.1;;;2;59.6
57374;BME280;43964;53.890;25.340;2023-02-21T20:16:52;1015.2;;;2.2;59.6
57374;BME280;43964;53.890;25.340;2023-02-21T20:21:40;1015.3;;;2.3;59.5
57374;BME280;43964;53.890;25.340;2023-02-21T20:27:06;1015.4;;;2.4;59.4
57374;BME280;43964;53.890;25.340;2023-02-21T20:31:50;1015.5;;;2.5;59.3
57374;BME280;43964;53.890;25.340;2023-02-21T20:37:08;1015.6;;;2.6;59.2
57374;BME280;43964;53.890;25.340;2023-02-21T20:41:52;1015.6;;;2.6;59.2
57374;BME280;43964;53.890;25.340;2023-02-21T20:46:26;1015.7;;;2.5;59.2
57374;BME280;43964;53.890;25.340;2023-02-21T20:51:25;1015.8;;;2.4;59
57374;BME280;43964;53.890;25.340;2023-02-21T20:56:53;1015.8;;;2.3;59
57374;BME280;43964;53.890;25.340;2023-02-21T21:02:08;1015.9;;;2.3;59
57374;BME280;43964;53.890;25.340;2023-02-21T21:06:42;1016;;;2.2;59
57374;BME280;43964;53.890;25.340;2023-02-21T21:11:30;1016.1;;;2;58.9
57374;BME280;43964;53.890;25.340;2023-02-21T21:16:30;1016.1;;;1.9;59
57374;BME280;43964;53.890;25.340;2023-02-21T21:21:54;1016.2;;;1.8;58.9
57374;BME280;43964;53.890;25.340;2023-02-21T21:27:08;1016.3;;;1.7;58.8
57374;BME280;43964;53.890;25.340;2023-02-21T21:31:51;1016.3;;;1.6;59
57374;BME280;43964;53.890;25.340;2023-02-21T21:36:41;1016.4;;;1.4;59
57374;BME280;43964;53.890;25.340;2023-02-21T21:41:18;1016.4;;;1.3;59.2
57374;BME280;43964;53.890;25.340;2023-02-21T21:46:20;1016.5;;;1.1;59.1
57374;BME280;43964;53.890;25.340;2023-02-21T21:52:10;1016.6;;;1.2;59.4
57374;BME280;43964;53.890;25.340;2023-02-21T21:56:21;1016.6;;;1.2;59.4
57374;BME280;43964;53.890;25.340;2023-02-21T22:01:40;1016.8;;;1.3;59
57374;BME280;43964;53.890;25.340;2023-02-21T22:06:40;1016.9;;;1.3;59.3
57374;BME280;43964;53.890;25.340;2023-02-21T22:11:18;1016.9;;;1.4;59.1
57374;BME280;43964;53.890;25.340;2023-02-21T22:17:06;1017;;;1.3;59.2
57374;BME280;43964;53.890;25.340;2023-02-21T22:21:50;1017.1;;;1.4;59.2
57374;BME280;43964;53.890;25.340;2023-02-21T22:26:42;1017.1;;;1.4;59
57374;BME280;43964;53.890;25.340;2023-02-21T22:31:56;1017.2;;;1.3;58.9
57374;BME280;43964;53.890;25.340;2023-02-21T22:36:54;1017.2;;;1.2;58.9
57374;BME280;43964;53.890;25.340;2023-02-21T22:42:06;1017.3;;;1.2;58.9
57374;BME280;43964;53.890;25.340;2023-02-21T22:46:52;1017.3;;;1.2;59.1
57374;BME280;43964;53.890;25.340;2023-02-21T22:51:22;1017.3;;;1.4;59.3
57374;BME280;43964;53.890;25.340;2023-02-21T22:56:40;1017.4;;;1.5;59.1
57374;BME280;43964;53.890;25.340;2023-02-21T23:01:52;1017.5;;;1.4;59.1
57374;BME280;43964;53.890;25.340;2023-02-21T23:07:06;1017.6;;;1.5;59.3
57374;BME280;43964;53.890;25.340;2023-02-21T23:11:55;1017.6;;;1.7;59.1
57374;BME280;43964;53.890;25.340;2023-02-21T23:17:08;1017.8;;;1.7;59
57374;BME280;43964;53.890;25.340;2023-02-21T23:21:28;1017.8;;;1.7;59
57374;BME280;43964;53.890;25.340;2023-02-21T23:26:52;1017.9;;;1.7;58.9
57374;BME280;43964;53.890;25.340;2023-02-21T23:32:06;1018;;;1.7;58.9
57374;BME280;43964;53.890;25.340;2023-02-21T23:36:52;1018;;;1.8;58.8
57374;BME280;43964;53.890;25.340;2023-02-21T23:41:18;1018.1;;;1.8;58.7
57374;BME280;43964;53.890;25.340;2023-02-21T23:46:28;1018.1;;;1.6;58.7
57374;BME280;43964;53.890;25.340;2023-02-21T23:51:42;1018.3;;;1.6;58.5
57374;BME280;43964;53.890;25.340;2023-02-21T23:57:06;1018.3;;;1.6;58.5
